Time;durP1;ratioP1;P1;durP2;ratioP2;P2;SDS_P1;SDS_P2;PMS_P1;PMS_P2;Temp;Humidity;BMP_temperature;BMP_pressure;BME280_temperature;BME280_humidity;BME280_pressure;Samples;Min_cycle;Max_cycle;Signal;HPM_P1;HPM_P2
2023/06/26 00:01:14;;;;;;;9.35;8.55;;;24.50;59.90;;;;;;5055695;28;20190;-58
2023/06/26 00:03:39;;;;;;;8.70;7.90;;;24.50;59.80;;;;;;5055499;28;20182;-58
2023/06/26 00:06:05;;;;;;;8.95;8.15;;;24.50;59.90;;;;;;5055767;28;20729;-58
2023/06/26 00:08:30;;;;;;;8.55;7.75;;;24.50;60.00;;;;;;5056086;28;20176;-58
2023/06/26 00:10:56;;;;;;;8.70;7.90;;;24.50;60.00;;;;;;5054863;28;20203;-58
2023/06/26 00:13:22;;;;;;;9.20;8.40;;;24.40;60.00;;;;;;5055894;28;20537;-58
2023/06/26 00:15:48;;;;;;;8.60;7.70;;;24.50;60.00;;;;;;5055953;28;20210;-58
2023/06/26 00:18:13;;;;;;;9.05;8.15;;;24.40;60.10;;;;;;5055034;28;20210;-58
2023/06/26 00:20:39;;;;;;;8.65;7.95;;;24.40;60.00;;;;;;5055681;28;20179;-58
2023/06/26 00:23:07;;;;;;;8.55;7.85;;;24.40;59.90;;;;;;5055577;28;20190;-58
2023/06/26 00:25:35;;;;;;;8.55;7.80;;;24.40;59.80;;;;;;5055024;28;20587;-57
2023/06/26 00:28:01;;;;;;;9.10;8.32;;;24.40;59.80;;;;;;5055277;28;20178;-57
2023/06/26 00:30:26;;;;;;;8.90;8.10;;;24.40;59.80;;;;;;5055675;28;20211;-57
2023/06/26 00:32:52;;;;;;;8.68;7.95;;;24.30;59.60;;;;;;5054923;28;20194;-58
2023/06/26 00:35:18;;;;;;;8.80;8.00;;;24.30;59.60;;;;;;5055223;28;20186;-58
2023/06/26 00:37:43;;;;;;;8.75;7.97;;;24.30;59.60;;;;;;5055340;28;20226;-58
2023/06/26 00:40:09;;;;;;;8.90;8.10;;;24.30;59.60;;;;;;5054250;28;20262;-58
2023/06/26 00:42:35;;;;;;;9.00;8.30;;;24.30;59.70;;;;;;5055183;28;20186;-57
2023/06/26 00:45:00;;;;;;;9.27;8.30;;;24.30;59.70;;;;;;5055271;28;20300;-58
2023/06/26 00:47:26;;;;;;;8.60;7.85;;;24.30;59.60;;;;;;5054574;28;20225;-58
2023/06/26 00:49:51;;;;;;;8.95;8.15;;;24.30;59.70;;;;;;5054093;28;20670;-58
2023/06/26 00:52:17;;;;;;;9.13;8.32;;;24.30;59.70;;;;;;5053557;28;20579;-58
2023/06/26 00:54:43;;;;;;;9.02;8.23;;;24.30;59.70;;;;;;5053117;28;20205;-57
2023/06/26 00:57:08;;;;;;;8.63;7.70;;;24.30;59.70;;;;;;5054985;28;20198;-57
2023/06/26 00:59:34;;;;;;;8.30;7.57;;;24.30;59.80;;;;;;5053299;28;20171;-58
2023/06/26 01:02:00;;;;;;;8.63;7.75;;;24.20;59.70;;;;;;5053696;28;20594;-59
2023/06/26 01:04:27;;;;;;;8.43;7.72;;;24.20;59.70;;;;;;5055104;28;20664;-58
2023/06/26 01:06:53;;;;;;;8.70;7.95;;;24.20;59.70;;;;;;5053088;28;20183;-58
2023/06/26 01:09:18;;;;;;;9.32;8.43;;;24.20;59.70;;;;;;5054484;28;20676;-58
2023/06/26 01:11:44;;;;;;;9.63;8.73;;;24.20;59.80;;;;;;5053571;28;20305;-58
2023/06/26 01:14:10;;;;;;;8.95;8.15;;;24.20;59.90;;;;;;5052635;28;20217;-58
2023/06/26 01:16:35;;;;;;;8.60;7.90;;;24.20;59.90;;;;;;5037098;28;20190;-58
2023/06/26 01:19:01;;;;;;;8.88;8.02;;;24.20;60.00;;;;;;5053163;28;20240;-57
2023/06/26 01:21:32;;;;;;;8.57;7.78;;;24.20;60.00;;;;;;5052663;28;20183;-58
2023/06/26 01:24:20;;;;;;;8.60;7.80;;;24.20;60.10;;;;;;5054140;28;20570;-58
2023/06/26 01:26:46;;;;;;;9.35;8.55;;;24.20;60.00;;;;;;5054764;28;20244;-56
2023/06/26 01:29:11;;;;;;;9.40;8.60;;;24.20;60.00;;;;;;5035665;28;20179;-57
2023/06/26 01:31:37;;;;;;;8.15;7.43;;;24.20;59.90;;;;;;5053149;28;20210;-58
2023/06/26 01:34:03;;;;;;;9.50;8.55;;;24.20;59.90;;;;;;5053219;28;20175;-58
2023/06/26 01:36:28;;;;;;;8.80;8.10;;;24.20;59.90;;;;;;5053696;28;20178;-57
2023/06/26 01:38:54;;;;;;;9.18;8.38;;;24.10;60.50;;;;;;5052907;28;20215;-58
2023/06/26 01:41:19;;;;;;;8.35;7.65;;;24.10;59.80;;;;;;5054161;28;20175;-58
2023/06/26 01:44:14;;;;;;;9.50;8.18;;;24.10;59.80;;;;;;5035919;28;20174;-58
2023/06/26 01:46:55;;;;;;;8.70;7.80;;;24.10;59.80;;;;;;5044714;28;20190;-57
2023/06/26 01:49:57;;;;;;;8.13;7.43;;;24.10;59.80;;;;;;5036819;28;20179;-58
2023/06/26 01:52:42;;;;;;;9.77;8.00;;;24.10;59.90;;;;;;5052888;28;20187;-58
2023/06/26 01:55:17;;;;;;;8.80;8.07;;;24.10;59.90;;;;;;5052695;28;20187;-57
2023/06/26 01:57:43;;;;;;;9.02;8.23;;;24.10;60.00;;;;;;5052342;28;20233;-58
2023/06/26 02:00:12;;;;;;;9.30;8.50;;;24.00;60.00;;;;;;5052494;28;20732;-58
2023/06/26 02:02:37;;;;;;;8.63;7.82;;;24.00;60.00;;;;;;5036694;28;20233;-58
2023/06/26 02:05:03;;;;;;;8.45;7.55;;;24.00;60.20;;;;;;5052764;28;20167;-58
2023/06/26 02:07:28;;;;;;;9.27;8.55;;;24.00;60.30;;;;;;5053788;28;20189;-56
2023/06/26 02:09:54;;;;;;;9.52;8.73;;;24.00;60.30;;;;;;5052598;28;20191;-58
2023/06/26 02:12:19;;;;;;;9.02;8.10;;;24.00;60.30;;;;;;5052082;28;20182;-58
2023/06/26 02:14:45;;;;;;;10.00;9.18;;;24.00;60.30;;;;;;5053569;28;20174;-57
2023/06/26 02:17:11;;;;;;;9.18;8.35;;;24.00;60.20;;;;;;5052655;28;20691;-58
2023/06/26 02:19:36;;;;;;;9.27;8.48;;;24.10;60.20;;;;;;5053478;28;20171;-58
2023/06/26 02:22:02;;;;;;;9.82;8.88;;;24.10;60.20;;;;;;5053174;28;20258;-58
2023/06/26 02:24:29;;;;;;;8.90;8.10;;;24.10;60.20;;;;;;5052556;28;20627;-57
2023/06/26 02:26:57;;;;;;;9.38;8.57;;;24.10;60.20;;;;;;5053574;28;20186;-57
2023/06/26 02:29:22;;;;;;;9.32;8.50;;;24.10;60.10;;;;;;5053494;28;20541;-57
2023/06/26 02:31:48;;;;;;;9.40;8.57;;;24.10;60.10;;;;;;5052579;28;20214;-57
2023/06/26 02:34:14;;;;;;;8.60;7.72;;;24.10;60.00;;;;;;5053023;28;20171;-58
2023/06/26 02:36:39;;;;;;;8.98;8.05;;;24.10;59.90;;;;;;5053244;28;20248;-58
2023/06/26 02:39:05;;;;;;;8.55;7.80;;;24.10;60.00;;;;;;5051941;28;20625;-58
2023/06/26 02:41:31;;;;;;;8.77;7.22;;;24.10;59.70;;;;;;5053413;28;20175;-58
2023/06/26 02:43:56;;;;;;;8.10;7.28;;;24.10;59.60;;;;;;5052790;28;20167;-58
2023/06/26 02:46:22;;;;;;;8.48;7.78;;;24.10;59.60;;;;;;5052440;28;20205;-58
2023/06/26 02:48:47;;;;;;;7.13;6.53;;;24.10;59.60;;;;;;5053071;28;20203;-58
2023/06/26 02:51:13;;;;;;;6.88;6.28;;;24.10;59.30;;;;;;5052657;28;20206;-58
2023/06/26 02:53:39;;;;;;;8.50;7.68;;;24.10;59.40;;;;;;5052194;28;20233;-57
2023/06/26 02:56:04;;;;;;;6.60;5.70;;;24.10;60.20;;;;;;5052883;28;20237;-57
2023/06/26 02:58:30;;;;;;;7.50;6.80;;;24.10;60.00;;;;;;5052868;28;20185;-58
2023/06/26 03:00:56;;;;;;;7.35;6.40;;;24.10;59.30;;;;;;5052114;28;20210;-58
2023/06/26 03:03:21;;;;;;;6.00;5.40;;;24.10;59.70;;;;;;5052902;28;20700;-58
2023/06/26 03:05:47;;;;;;;6.30;5.63;;;24.10;59.00;;;;;;5052913;28;20182;-58
2023/06/26 03:08:12;;;;;;;6.40;5.78;;;24.10;58.90;;;;;;5051865;28;20175;-58
2023/06/26 03:10:38;;;;;;;6.03;5.50;;;24.10;59.00;;;;;;5052860;28;20222;-57
2023/06/26 03:13:03;;;;;;;6.10;5.57;;;24.00;58.90;;;;;;5051602;28;20170;-58
2023/06/26 03:15:29;;;;;;;7.95;6.10;;;24.10;58.90;;;;;;5052869;28;20531;-57
2023/06/26 03:17:55;;;;;;;5.63;4.97;;;24.10;58.80;;;;;;5052903;28;20261;-57
2023/06/26 03:20:20;;;;;;;5.95;5.07;;;24.00;58.90;;;;;;5051621;28;20209;-57
2023/06/26 03:22:46;;;;;;;6.68;5.05;;;24.10;59.00;;;;;;5054853;28;20186;-58
2023/06/26 03:25:11;;;;;;;5.65;4.85;;;24.10;58.80;;;;;;5056685;28;20179;-58
2023/06/26 03:27:37;;;;;;;6.78;5.22;;;24.10;58.80;;;;;;5056185;28;20167;-57
2023/06/26 03:30:02;;;;;;;5.90;5.40;;;24.10;58.70;;;;;;5056349;28;20684;-57
2023/06/26 03:32:28;;;;;;;6.05;4.82;;;24.00;58.60;;;;;;5057119;28;20634;-57
2023/06/26 03:34:53;;;;;;;6.20;5.00;;;24.10;58.70;;;;;;5055883;28;20529;-58
2023/06/26 03:37:19;;;;;;;6.18;5.20;;;24.00;58.70;;;;;;5056391;28;20589;-58
2023/06/26 03:39:45;;;;;;;6.03;5.20;;;24.00;58.70;;;;;;5056365;28;20708;-57
2023/06/26 03:42:10;;;;;;;5.95;4.70;;;24.00;58.80;;;;;;5055796;28;20237;-60
2023/06/26 03:44:36;;;;;;;5.80;4.47;;;24.00;58.70;;;;;;5056677;28;20179;-62
2023/06/26 03:47:01;;;;;;;6.75;4.65;;;24.00;58.80;;;;;;5056489;28;20174;-58
2023/06/26 03:49:27;;;;;;;6.47;4.50;;;24.00;58.80;;;;;;5055491;28;20206;-58
2023/06/26 03:51:52;;;;;;;7.28;4.50;;;24.00;58.80;;;;;;5056434;28;20519;-58
2023/06/26 03:54:18;;;;;;;7.53;4.65;;;24.00;58.90;;;;;;5056182;28;20580;-57
2023/06/26 03:56:43;;;;;;;8.98;4.82;;;24.00;58.80;;;;;;5055740;28;20210;-58
2023/06/26 03:59:10;;;;;;;9.13;4.85;;;24.00;58.80;;;;;;5055918;28;20191;-58
2023/06/26 04:01:36;;;;;;;7.88;5.07;;;24.00;58.80;;;;;;5056013;28;20193;-58
2023/06/26 04:04:02;;;;;;;5.78;4.70;;;24.00;58.80;;;;;;5054922;28;20179;-58
2023/06/26 04:06:28;;;;;;;7.00;5.10;;;24.00;58.90;;;;;;5056264;28;20204;-58
2023/06/26 04:08:53;;;;;;;6.25;4.68;;;24.00;59.00;;;;;;5056133;28;20175;-58
2023/06/26 04:11:19;;;;;;;8.00;4.88;;;24.00;59.00;;;;;;5054943;28;20207;-58
2023/06/26 04:13:44;;;;;;;7.47;5.05;;;24.00;59.00;;;;;;5055996;28;20171;-58
2023/06/26 04:16:11;;;;;;;7.18;4.32;;;24.00;59.00;;;;;;5055439;28;20167;-58
2023/06/26 04:18:37;;;;;;;7.90;4.80;;;24.00;59.10;;;;;;5054986;28;20543;-58
2023/06/26 04:21:12;;;;;;;8.93;5.15;;;24.00;59.00;;;;;;5055408;28;20185;-58
2023/06/26 04:23:39;;;;;;;9.27;5.53;;;24.00;59.20;;;;;;5055215;28;20201;-57
2023/06/26 04:26:05;;;;;;;7.70;4.55;;;24.00;59.20;;;;;;5055497;28;20297;-57
2023/06/26 04:28:32;;;;;;;10.48;5.55;;;24.00;59.20;;;;;;5055633;28;20179;-57
2023/06/26 04:30:58;;;;;;;11.23;5.00;;;24.00;59.20;;;;;;5054598;28;20214;-57
2023/06/26 04:33:25;;;;;;;4.95;4.30;;;24.00;59.20;;;;;;5054210;28;20179;-58
2023/06/26 04:35:51;;;;;;;10.43;5.20;;;24.30;59.40;;;;;;5055422;28;20179;-58
2023/06/26 04:38:16;;;;;;;7.82;4.80;;;24.00;59.30;;;;;;5054442;28;20709;-58
2023/06/26 04:40:42;;;;;;;10.20;4.75;;;24.00;59.30;;;;;;5055415;28;20642;-58
2023/06/26 04:43:09;;;;;;;8.07;5.00;;;24.00;59.30;;;;;;5054999;28;20290;-58
2023/06/26 04:45:35;;;;;;;9.70;5.47;;;24.00;59.40;;;;;;5054729;28;20266;-58
2023/06/26 04:48:00;;;;;;;10.65;5.10;;;24.00;59.40;;;;;;5054952;28;20183;-58
2023/06/26 04:50:28;;;;;;;8.90;4.88;;;24.00;59.50;;;;;;5055091;28;20210;-58
2023/06/26 04:52:54;;;;;;;10.02;5.60;;;24.00;59.40;;;;;;5054573;28;20182;-58
2023/06/26 04:55:21;;;;;;;10.13;5.55;;;24.00;59.50;;;;;;5054978;28;20180;-57
2023/06/26 04:57:47;;;;;;;8.38;4.63;;;24.00;59.60;;;;;;5055157;28;20183;-57
2023/06/26 05:00:13;;;;;;;9.80;5.80;;;24.00;60.20;;;;;;5054041;28;20171;-58
2023/06/26 05:02:38;;;;;;;8.43;5.05;;;24.00;59.60;;;;;;5054876;28;20190;-58
2023/06/26 05:05:04;;;;;;;7.95;5.40;;;24.00;59.60;;;;;;5054554;28;20183;-58
2023/06/26 05:07:30;;;;;;;11.65;5.90;;;24.00;59.60;;;;;;5054203;28;20175;-59
2023/06/26 05:09:55;;;;;;;9.65;5.30;;;24.00;59.60;;;;;;5054367;28;20261;-59
2023/06/26 05:12:21;;;;;;;10.20;5.40;;;24.10;59.60;;;;;;5054982;28;20183;-58
2023/06/26 05:14:46;;;;;;;12.52;5.50;;;24.00;59.60;;;;;;5054081;28;20546;-57
2023/06/26 05:17:14;;;;;;;12.25;5.43;;;24.00;59.70;;;;;;5054416;28;20535;-58
2023/06/26 05:19:39;;;;;;;11.10;5.63;;;24.00;59.70;;;;;;5053816;28;20183;-58
2023/06/26 05:22:07;;;;;;;8.15;4.90;;;24.00;59.70;;;;;;5054440;28;20566;-58
2023/06/26 05:24:36;;;;;;;9.02;4.97;;;24.00;59.70;;;;;;5053297;28;20175;-57
2023/06/26 05:27:02;;;;;;;9.88;5.25;;;24.00;59.70;;;;;;5052251;28;20716;-57
2023/06/26 05:29:30;;;;;;;9.15;5.07;;;24.00;59.60;;;;;;5054435;28;20600;-57
2023/06/26 05:31:56;;;;;;;8.07;4.72;;;24.00;59.70;;;;;;5053904;28;20711;-58
2023/06/26 05:34:22;;;;;;;9.43;5.40;;;24.10;59.70;;;;;;5053823;28;20175;-58
2023/06/26 05:36:49;;;;;;;9.65;4.75;;;24.00;59.60;;;;;;5054267;28;20622;-58
2023/06/26 05:39:15;;;;;;;9.15;5.03;;;24.00;59.70;;;;;;5053810;28;20333;-58
2023/06/26 05:41:41;;;;;;;9.40;5.20;;;24.10;59.70;;;;;;5053798;28;20179;-57
2023/06/26 05:44:06;;;;;;;6.63;4.68;;;24.10;59.60;;;;;;5053648;28;20533;-58
2023/06/26 05:46:32;;;;;;;8.15;4.65;;;24.10;59.60;;;;;;5053504;28;20179;-58
2023/06/26 05:48:58;;;;;;;12.82;5.32;;;24.10;59.60;;;;;;5053345;28;20203;-58
2023/06/26 05:51:23;;;;;;;9.23;5.20;;;24.10;59.60;;;;;;5054067;28;20221;-58
2023/06/26 05:53:49;;;;;;;9.43;5.43;;;24.00;59.60;;;;;;5054175;28;20636;-58
2023/06/26 05:56:15;;;;;;;10.38;5.88;;;24.10;59.70;;;;;;5052968;28;21020;-56
2023/06/26 05:58:41;;;;;;;8.45;5.40;;;24.10;59.60;;;;;;5053716;28;20253;-58
2023/06/26 06:01:06;;;;;;;9.18;4.70;;;24.10;59.60;;;;;;5052244;28;20179;-58
2023/06/26 06:03:32;;;;;;;9.73;5.50;;;24.10;59.60;;;;;;5053059;28;20530;-58
2023/06/26 06:05:57;;;;;;;9.05;4.57;;;24.10;59.50;;;;;;5053307;28;20682;-58
2023/06/26 06:08:23;;;;;;;11.25;5.07;;;24.10;59.50;;;;;;5054005;28;20266;-58
2023/06/26 06:10:48;;;;;;;8.48;4.63;;;24.10;59.30;;;;;;5052887;28;20210;-58
2023/06/26 06:13:14;;;;;;;7.40;4.72;;;24.10;59.30;;;;;;5053372;28;20179;-58
2023/06/26 06:15:39;;;;;;;6.68;4.80;;;24.10;59.40;;;;;;5053596;28;20175;-58
2023/06/26 06:18:05;;;;;;;6.90;4.78;;;24.10;59.30;;;;;;5052592;28;20171;-58
2023/06/26 06:20:30;;;;;;;8.70;4.97;;;24.10;59.00;;;;;;5053619;28;20195;-57
2023/06/26 06:22:56;;;;;;;8.05;4.57;;;24.10;59.00;;;;;;5052615;28;20745;-58
2023/06/26 06:25:21;;;;;;;7.03;4.53;;;24.10;59.10;;;;;;5053465;28;20210;-57
2023/06/26 06:27:47;;;;;;;6.15;3.92;;;24.10;58.70;;;;;;5053597;28;20198;-57
2023/06/26 06:30:13;;;;;;;7.57;4.28;;;24.20;58.60;;;;;;5052149;28;20191;-57
2023/06/26 06:32:38;;;;;;;7.68;4.60;;;24.10;58.70;;;;;;5054062;28;20183;-58
2023/06/26 06:35:09;;;;;;;5.28;4.13;;;24.20;58.60;;;;;;5053150;28;20530;-58
2023/06/26 06:37:37;;;;;;;7.65;4.20;;;24.10;58.40;;;;;;5052383;28;20213;-58
2023/06/26 06:40:05;;;;;;;7.55;4.05;;;24.10;58.50;;;;;;5052975;28;20175;-58
2023/06/26 06:42:32;;;;;;;5.97;3.30;;;24.20;58.40;;;;;;5053148;28;20201;-57
2023/06/26 06:44:57;;;;;;;6.45;3.75;;;24.20;58.30;;;;;;5052039;28;20264;-58
2023/06/26 06:47:23;;;;;;;5.07;3.80;;;24.20;58.60;;;;;;5053142;28;20633;-57
2023/06/26 06:49:48;;;;;;;5.97;3.50;;;24.20;58.50;;;;;;5053094;28;20585;-58
2023/06/26 06:52:14;;;;;;;5.28;4.00;;;24.20;58.50;;;;;;5051982;28;20201;-57
2023/06/26 06:54:55;;;;;;;5.50;3.95;;;24.20;58.30;;;;;;5052715;28;20178;-57
2023/06/26 06:57:21;;;;;;;5.85;3.72;;;24.20;58.20;;;;;;5052085;28;20184;-58
2023/06/26 06:59:48;;;;;;;5.97;3.80;;;24.20;58.30;;;;;;5052310;28;20179;-58
2023/06/26 07:02:14;;;;;;;5.40;3.50;;;24.20;58.00;;;;;;5052621;28;20208;-58
2023/06/26 07:04:39;;;;;;;6.13;3.55;;;24.20;58.30;;;;;;5052868;28;20182;-59
2023/06/26 07:07:05;;;;;;;5.47;3.13;;;24.20;58.80;;;;;;5051692;28;20183;-59
2023/06/26 07:09:31;;;;;;;6.20;3.47;;;24.20;58.10;;;;;;5052578;28;20179;-59
2023/06/26 07:11:57;;;;;;;4.82;3.00;;;24.20;58.20;;;;;;5052256;28;20214;-59
2023/06/26 07:14:22;;;;;;;6.32;3.65;;;24.30;58.10;;;;;;5052071;28;20179;-59
2023/06/26 07:16:48;;;;;;;7.55;3.78;;;24.20;58.30;;;;;;5052793;28;20539;-58
2023/06/26 07:19:13;;;;;;;5.80;3.40;;;24.30;58.40;;;;;;5051823;28;20591;-58
2023/06/26 07:21:39;;;;;;;4.85;3.28;;;24.30;58.40;;;;;;5052566;28;20611;-59
2023/06/26 07:24:04;;;;;;;6.10;3.45;;;24.30;58.30;;;;;;5052208;28;20167;-58
2023/06/26 07:26:30;;;;;;;4.13;3.17;;;24.30;58.20;;;;;;5051758;28;20175;-57
2023/06/26 07:28:56;;;;;;;3.88;2.97;;;24.30;58.20;;;;;;5052539;28;20194;-58
2023/06/26 07:31:22;;;;;;;4.28;3.10;;;24.20;58.20;;;;;;5052676;28;20229;-58
2023/06/26 07:33:47;;;;;;;3.28;2.67;;;24.30;58.20;;;;;;5051905;28;20171;-58
2023/06/26 07:36:13;;;;;;;4.45;3.00;;;24.30;58.20;;;;;;5052340;28;20690;-58
2023/06/26 07:38:38;;;;;;;3.45;2.72;;;24.30;58.80;;;;;;5052323;28;20606;-59
2023/06/26 07:41:04;;;;;;;4.25;3.33;;;24.30;58.30;;;;;;5051377;28;20199;-58
2023/06/26 07:43:30;;;;;;;3.30;3.00;;;24.30;58.30;;;;;;5052721;28;20168;-58
2023/06/26 07:45:58;;;;;;;3.03;2.70;;;24.30;58.30;;;;;;5052157;28;20187;-59
2023/06/26 07:48:24;;;;;;;3.72;3.00;;;24.30;58.30;;;;;;5051792;28;20237;-59
2023/06/26 07:50:50;;;;;;;2.90;2.42;;;24.30;58.20;;;;;;5052207;28;20678;-58
2023/06/26 07:53:15;;;;;;;4.95;2.60;;;24.30;58.20;;;;;;5052073;28;20183;-58
2023/06/26 07:55:41;;;;;;;4.00;2.85;;;24.30;58.40;;;;;;5051730;28;20258;-57
2023/06/26 07:58:07;;;;;;;3.63;2.55;;;24.30;58.30;;;;;;5052015;28;20179;-58
2023/06/26 08:00:33;;;;;;;3.75;3.10;;;24.30;58.40;;;;;;5052537;28;20198;-58
2023/06/26 08:02:58;;;;;;;5.38;3.45;;;24.30;58.30;;;;;;5051284;28;20638;-59
2023/06/26 08:05:24;;;;;;;4.95;3.13;;;24.30;58.30;;;;;;5052245;28;20171;-59
2023/06/26 08:07:49;;;;;;;2.88;2.30;;;24.30;58.30;;;;;;5052958;28;20698;-59
2023/06/26 08:10:15;;;;;;;3.88;3.28;;;24.30;58.30;;;;;;5054909;28;20831;-59
2023/06/26 08:12:42;;;;;;;3.00;2.70;;;24.40;58.30;;;;;;5055853;28;20187;-58
2023/06/26 08:15:09;;;;;;;3.10;2.80;;;24.30;58.20;;;;;;5055787;28;20250;-59
2023/06/26 08:17:35;;;;;;;3.28;2.67;;;24.30;58.30;;;;;;5055243;28;20175;-58
2023/06/26 08:20:01;;;;;;;2.83;2.55;;;24.30;58.40;;;;;;5055577;28;20254;-59
2023/06/26 08:22:27;;;;;;;2.95;2.65;;;24.30;58.30;;;;;;5055761;28;20262;-58
2023/06/26 08:24:52;;;;;;;3.55;2.70;;;24.30;58.40;;;;;;5055030;28;20274;-58
2023/06/26 08:27:18;;;;;;;3.22;2.65;;;24.30;58.30;;;;;;5055599;28;20231;-59
2023/06/26 08:29:44;;;;;;;4.43;3.25;;;24.30;58.30;;;;;;5054929;28;20690;-59
2023/06/26 08:32:09;;;;;;;2.90;2.50;;;24.30;58.20;;;;;;5055418;28;20179;-59
2023/06/26 08:34:35;;;;;;;3.47;2.63;;;24.40;58.20;;;;;;5055613;28;20182;-59
2023/06/26 08:37:00;;;;;;;3.42;2.60;;;24.40;58.20;;;;;;5054469;28;20211;-59
2023/06/26 08:39:26;;;;;;;3.17;2.75;;;24.40;58.10;;;;;;5055154;28;20215;-59
2023/06/26 08:41:52;;;;;;;3.00;2.58;;;24.40;58.10;;;;;;5055622;28;20171;-59
2023/06/26 08:44:17;;;;;;;3.22;2.65;;;24.50;58.10;;;;;;5054313;28;20179;-59
2023/06/26 08:46:43;;;;;;;3.45;2.78;;;24.40;58.00;;;;;;5054279;28;20175;-59
2023/06/26 08:49:14;;;;;;;2.97;2.55;;;24.40;58.00;;;;;;5053847;28;20183;-59
2023/06/26 08:51:40;;;;;;;2.50;2.30;;;24.40;58.00;;;;;;5053222;28;20215;-59
2023/06/26 08:54:07;;;;;;;3.42;3.13;;;24.40;58.00;;;;;;5053600;28;20691;-59
2023/06/26 08:56:36;;;;;;;2.88;2.58;;;24.40;58.70;;;;;;5037635;28;20171;-58
2023/06/26 08:59:01;;;;;;;3.28;2.97;;;24.30;58.20;;;;;;5037074;28;20178;-59
2023/06/26 09:01:27;;;;;;;2.80;2.60;;;24.30;58.30;;;;;;5053928;28;20179;-58
2023/06/26 09:03:53;;;;;;;3.45;2.38;;;24.40;58.20;;;;;;5053909;28;20248;-59
2023/06/26 09:06:18;;;;;;;2.38;2.17;;;24.40;58.20;;;;;;5053913;28;20178;-59
2023/06/26 09:08:44;;;;;;;3.53;2.58;;;24.40;58.10;;;;;;5053537;28;20163;-60
2023/06/26 09:11:10;;;;;;;2.75;2.55;;;24.40;58.00;;;;;;5054707;28;20535;-59
2023/06/26 09:13:35;;;;;;;3.45;2.35;;;24.40;58.10;;;;;;5054183;28;20687;-59
2023/06/26 09:16:06;;;;;;;2.97;2.65;;;24.40;58.80;;;;;;5054520;28;20570;-59
2023/06/26 09:18:32;;;;;;;2.70;2.28;;;24.40;58.20;;;;;;5054664;28;20179;-59
2023/06/26 09:20:57;;;;;;;2.63;2.33;;;24.40;58.10;;;;;;5051348;28;20183;-59
2023/06/26 09:23:23;;;;;;;2.65;2.45;;;24.40;58.00;;;;;;5054579;28;20179;-58
2023/06/26 09:25:49;;;;;;;2.90;2.60;;;24.50;58.00;;;;;;5054009;28;20262;-58
2023/06/26 09:28:14;;;;;;;4.22;2.80;;;24.40;57.90;;;;;;5052957;28;20175;-58
2023/06/26 09:30:40;;;;;;;3.05;2.75;;;24.40;58.00;;;;;;5053208;28;20203;-58
2023/06/26 09:33:19;;;;;;;2.83;2.55;;;24.40;58.10;;;;;;5052327;28;20179;-59
2023/06/26 09:35:45;;;;;;;2.65;2.45;;;24.40;58.00;;;;;;5054283;28;20185;-59
2023/06/26 09:38:11;;;;;;;2.67;2.47;;;24.40;57.90;;;;;;5054019;28;20223;-59
2023/06/26 09:40:40;;;;;;;3.17;2.42;;;24.50;57.80;;;;;;5053704;28;20219;-58
2023/06/26 09:43:06;;;;;;;2.90;2.55;;;24.40;57.70;;;;;;5053913;28;20628;-59
2023/06/26 09:45:36;;;;;;;3.20;2.90;;;24.40;58.40;;;;;;5054174;28;20211;-59
2023/06/26 09:48:02;;;;;;;4.25;2.45;;;24.40;57.70;;;;;;5053162;28;20179;-59
2023/06/26 09:50:28;;;;;;;2.80;2.22;;;24.50;57.70;;;;;;5054005;28;20203;-59
2023/06/26 09:52:54;;;;;;;2.42;2.03;;;24.50;57.60;;;;;;5054183;28;20233;-58
2023/06/26 09:55:21;;;;;;;3.67;2.30;;;24.50;57.40;;;;;;5053199;28;20656;-58
2023/06/26 09:57:47;;;;;;;2.47;2.13;;;24.40;57.10;;;;;;5054007;28;20179;-58
2023/06/26 10:00:13;;;;;;;3.75;2.50;;;24.50;57.10;;;;;;5052464;28;20175;-58
2023/06/26 10:02:39;;;;;;;3.08;2.03;;;24.50;56.90;;;;;;5053154;28;20224;-58
2023/06/26 10:05:05;;;;;;;2.33;1.90;;;24.50;56.90;;;;;;5053467;28;20258;-59
2023/06/26 10:07:30;;;;;;;2.40;2.20;;;24.50;56.70;;;;;;5053951;28;20194;-60
2023/06/26 10:09:56;;;;;;;3.17;2.40;;;24.50;56.60;;;;;;5052804;28;20206;-59
2023/06/26 10:12:31;;;;;;;3.50;2.20;;;24.50;56.80;;;;;;5052569;28;20693;-58
2023/06/26 10:14:57;;;;;;;10.73;2.33;;;24.50;56.90;;;;;;5053425;28;20173;-59
2023/06/26 10:17:25;;;;;;;5.03;2.35;;;24.40;56.90;;;;;;5052769;28;20228;-59
2023/06/26 10:19:53;;;;;;;3.17;2.05;;;24.50;56.90;;;;;;5052537;28;20636;-58
2023/06/26 10:22:20;;;;;;;4.47;2.45;;;24.40;56.90;;;;;;5051525;28;20178;-58
2023/06/26 10:24:46;;;;;;;2.20;2.00;;;24.40;57.00;;;;;;5053563;28;20187;-59
2023/06/26 10:27:21;;;;;;;3.08;2.05;;;24.40;57.00;;;;;;5052167;28;20186;-58
2023/06/26 10:29:51;;;;;;;2.88;2.08;;;24.40;57.20;;;;;;5052507;28;20252;-58
2023/06/26 10:32:17;;;;;;;2.60;2.00;;;24.40;57.10;;;;;;5051712;28;20589;-59
2023/06/26 10:34:42;;;;;;;7.10;2.75;;;24.50;57.10;;;;;;5052485;28;20250;-59
2023/06/26 10:37:08;;;;;;;3.97;2.15;;;24.50;56.80;;;;;;5050540;28;20552;-59
2023/06/26 10:40:00;;;;;;;3.25;2.20;;;24.50;56.80;;;;;;5052116;28;20586;-59
2023/06/26 10:42:44;;;;;;;4.45;2.20;;;24.50;57.10;;;;;;5051554;28;20662;-59
2023/06/26 10:45:13;;;;;;;3.83;1.70;;;24.60;57.00;;;;;;5055236;28;20171;-58
2023/06/26 10:47:40;;;;;;;2.00;1.80;;;24.60;56.80;;;;;;5069623;28;20577;-59
2023/06/26 10:50:24;;;;;;;4.28;2.05;;;24.60;56.90;;;;;;5052123;28;20226;-58
2023/06/26 10:53:20;;;;;;;3.17;1.80;;;24.60;56.90;;;;;;5059422;28;20261;-59
2023/06/26 10:56:02;;;;;;;2.80;1.83;;;24.60;56.70;;;;;;5072462;28;20178;-59
2023/06/26 10:58:46;;;;;;;1.73;1.50;;;24.60;56.50;;;;;;5060093;28;20723;-58
2023/06/26 11:01:16;;;;;;;4.30;1.70;;;24.60;56.40;;;;;;5057417;28;20174;-59
2023/06/26 11:03:45;;;;;;;5.05;1.85;;;24.60;56.50;;;;;;5071891;28;20178;-59
2023/06/26 11:06:11;;;;;;;3.75;1.98;;;24.60;56.20;;;;;;5072044;28;20173;-59
2023/06/26 11:08:55;;;;;;;4.00;1.95;;;24.60;56.60;;;;;;5072858;28;20174;-59
2023/06/26 11:11:23;;;;;;;3.95;2.00;;;24.70;56.70;;;;;;5072017;28;20213;-59
2023/06/26 11:13:48;;;;;;;5.35;2.00;;;24.60;56.50;;;;;;5054676;28;20182;-62
2023/06/26 11:16:14;;;;;;;4.63;2.28;;;24.60;56.40;;;;;;5072648;28;20220;-60
2023/06/26 11:18:42;;;;;;;7.28;2.17;;;24.60;56.40;;;;;;5063708;28;20238;-59
2023/06/26 11:21:09;;;;;;;3.55;1.95;;;24.60;57.00;;;;;;5052424;28;20179;-59
2023/06/26 11:23:36;;;;;;;5.05;2.08;;;24.70;56.60;;;;;;5052537;28;20679;-58
2023/06/26 11:26:14;;;;;;;4.82;2.40;;;24.60;56.70;;;;;;5051524;28;20237;-58
2023/06/26 11:28:55;;;;;;;4.55;2.03;;;24.70;56.90;;;;;;5052634;28;20253;-59
2023/06/26 11:31:27;;;;;;;2.60;1.77;;;24.60;56.70;;;;;;5052925;28;20198;-59
2023/06/26 11:33:54;;;;;;;3.38;1.80;;;24.60;56.50;;;;;;5051796;28;20174;-59
2023/06/26 11:36:19;;;;;;;6.32;1.70;;;24.60;56.40;;;;;;5052159;28;20179;-60
2023/06/26 11:38:45;;;;;;;3.65;1.77;;;24.60;56.40;;;;;;5050982;28;20237;-59
2023/06/26 11:41:16;;;;;;;3.15;1.70;;;24.60;56.20;;;;;;5051439;28;20538;-59
2023/06/26 11:43:41;;;;;;;3.42;2.00;;;24.60;56.20;;;;;;5054437;28;20253;-59
2023/06/26 11:46:07;;;;;;;4.10;1.52;;;24.70;56.10;;;;;;5056074;28;20258;-59
2023/06/26 11:48:32;;;;;;;2.80;1.98;;;24.60;55.80;;;;;;5055473;28;20262;-59
2023/06/26 11:50:58;;;;;;;4.50;2.05;;;24.70;55.90;;;;;;5055919;28;20210;-59
2023/06/26 11:53:23;;;;;;;6.13;1.73;;;24.70;55.70;;;;;;5069218;28;20183;-59
2023/06/26 11:55:49;;;;;;;3.20;1.42;;;24.70;55.70;;;;;;5075569;28;20653;-59
2023/06/26 11:58:15;;;;;;;2.60;1.63;;;24.60;55.70;;;;;;5076005;28;20259;-58
2023/06/26 12:00:46;;;;;;;6.28;1.52;;;24.70;55.40;;;;;;5075627;28;20171;-59
2023/06/26 12:03:11;;;;;;;4.65;1.60;;;24.80;55.30;;;;;;5075873;28;20525;-59
2023/06/26 12:05:37;;;;;;;6.05;1.58;;;24.80;55.20;;;;;;5076013;28;20163;-60
2023/06/26 12:08:06;;;;;;;4.03;1.90;;;24.70;55.00;;;;;;5073890;28;20175;-59
2023/06/26 12:10:32;;;;;;;2.85;1.60;;;24.80;55.10;;;;;;5074932;28;20251;-59
2023/06/26 12:13:01;;;;;;;2.67;1.60;;;24.80;54.90;;;;;;5074546;28;20250;-59
2023/06/26 12:15:26;;;;;;;3.03;1.33;;;24.80;54.90;;;;;;5057974;28;20236;-59
2023/06/26 12:17:52;;;;;;;2.60;1.40;;;24.80;54.80;;;;;;5058175;28;20539;-59
2023/06/26 12:20:21;;;;;;;2.42;1.50;;;24.80;54.80;;;;;;5075504;28;20179;-59
2023/06/26 12:22:48;;;;;;;2.95;1.33;;;24.80;54.70;;;;;;5074938;28;20179;-58
2023/06/26 12:25:14;;;;;;;3.92;1.10;;;24.80;54.70;;;;;;5075456;28;20183;-59
2023/06/26 12:27:39;;;;;;;2.03;1.30;;;24.80;55.30;;;;;;5075716;28;20171;-59
2023/06/26 12:30:07;;;;;;;3.38;1.20;;;24.80;54.60;;;;;;5073921;28;20189;-59
2023/06/26 12:32:34;;;;;;;2.70;1.20;;;24.80;54.60;;;;;;5075304;28;20188;-59
2023/06/26 12:34:59;;;;;;;1.67;1.10;;;24.80;54.50;;;;;;5073861;28;20174;-60
2023/06/26 12:37:25;;;;;;;2.58;1.20;;;24.80;54.40;;;;;;5056674;28;20258;-58
2023/06/26 12:39:55;;;;;;;3.30;1.55;;;24.80;54.40;;;;;;5075609;28;20524;-59
2023/06/26 12:42:25;;;;;;;2.97;1.50;;;24.80;54.70;;;;;;5075967;28;20182;-59
2023/06/26 12:44:51;;;;;;;4.50;1.45;;;24.90;54.20;;;;;;5074765;28;20171;-60